Time;durP1;ratioP1;P1;durP2;ratioP2;P2;SDS_P1;SDS_P2;PMS_P1;PMS_P2;Temp;Humidity;BMP_temperature;BMP_pressure;BME280_temperature;BME280_humidity;BME280_pressure;Samples;Min_cycle;Max_cycle;Signal;HPM_P1;HPM_P2
2022/04/27 00:02:56;;;;;;;1.88;1.75;;;;;;;17.62;57.99;96891.69;10334087;28;20560;-23
2022/04/27 00:07:57;;;;;;;3.35;1.80;;;;;;;17.62;58.46;96889.16;10334304;28;20129;-22
2022/04/27 00:12:57;;;;;;;1.70;1.50;;;;;;;17.60;60.24;96896.75;10333161;28;20037;-22
2022/04/27 00:17:58;;;;;;;2.80;1.93;;;;;;;17.65;60.21;96889.19;10333710;28;20041;-22
2022/04/27 00:22:58;;;;;;;2.58;1.77;;;;;;;17.65;59.68;96889.19;10333189;28;20504;-22
2022/04/27 00:27:58;;;;;;;3.27;2.17;;;;;;;17.55;59.67;96873.09;10361293;28;20084;-23
2022/04/27 00:33:00;;;;;;;1.63;1.52;;;;;;;17.64;59.29;96878.22;10373674;28;20097;-22
2022/04/27 00:38:01;;;;;;;2.78;1.80;;;;;;;17.60;59.82;96881.56;10365817;28;20037;-22
2022/04/27 00:43:02;;;;;;;3.30;1.60;;;;;;;17.61;58.72;96882.41;10371269;28;20373;-22
2022/04/27 00:48:03;;;;;;;2.00;1.60;;;;;;;17.59;58.43;96886.63;10372038;28;20045;-22
2022/04/27 00:53:04;;;;;;;2.20;1.40;;;;;;;17.59;59.11;96891.69;10371260;28;20140;-22
2022/04/27 00:58:05;;;;;;;2.42;1.38;;;;;;;17.61;59.50;96882.41;10343056;28;20034;-22
2022/04/27 01:03:06;;;;;;;2.38;1.42;;;;;;;17.60;59.32;96890.84;10329214;28;20578;-22
2022/04/27 01:08:06;;;;;;;2.88;1.92;;;;;;;17.59;58.40;96889.97;10332098;28;20123;-22
2022/04/27 01:13:08;;;;;;;1.40;1.30;;;;;;;17.60;59.46;96885.78;10330279;28;20038;-23
2022/04/27 01:18:09;;;;;;;2.50;1.60;;;;;;;17.62;60.24;96887.50;10330052;28;20046;-21
2022/04/27 01:23:12;;;;;;;1.73;1.50;;;;;;;17.61;59.84;96888.31;10329592;28;20457;-22
2022/04/27 01:28:14;;;;;;;2.65;1.73;;;;;;;17.62;59.87;96889.16;10329551;28;20636;-22
2022/04/27 01:33:15;;;;;;;1.70;1.30;;;;;;;17.63;59.43;96889.19;10338965;28;20476;-22
2022/04/27 01:38:16;;;;;;;1.33;1.23;;;;;;;17.60;58.90;96891.69;10371094;28;20026;-22
2022/04/27 01:43:16;;;;;;;2.58;1.48;;;;;;;17.61;58.29;96897.59;10337184;28;20049;-22
2022/04/27 01:48:17;;;;;;;2.00;1.60;;;;;;;17.60;59.79;96895.91;10331107;28;20031;-22
2022/04/27 01:58:37;;;;;;;1.35;1.17;;;;;;;17.57;58.57;96890.84;10327767;28;20617;-22
2022/04/27 02:03:39;;;;;;;1.27;1.17;;;;;;;17.58;59.17;96898.41;10327475;28;20031;-22
2022/04/27 02:08:44;;;;;;;1.25;1.05;;;;;;;17.58;58.34;96906.00;10327664;28;20030;-22
2022/04/27 02:13:44;;;;;;;1.67;1.30;;;;;;;17.60;59.12;96901.84;10328722;28;20117;-22
2022/04/27 02:18:45;;;;;;;2.08;1.23;;;;;;;17.61;59.74;96888.31;10327357;28;20420;-22
2022/04/27 02:23:49;;;;;;;1.50;1.40;;;;;;;17.61;59.17;96902.66;10327551;28;20038;-22
2022/04/27 02:28:50;;;;;;;2.03;1.67;;;;;;;17.59;59.27;96900.09;10327146;28;20046;-23
2022/04/27 02:33:51;;;;;;;1.75;1.50;;;;;;;17.61;59.02;96902.66;10327156;28;20258;-22
2022/04/27 02:38:52;;;;;;;2.45;2.00;;;;;;;17.58;59.44;96908.53;10327243;28;20026;-22
2022/04/27 02:43:54;;;;;;;1.67;1.48;;;;;;;17.58;58.65;96903.47;10327885;28;20105;-22
2022/04/27 02:54:19;;;;;;;2.83;1.40;;;;;;;17.54;59.10;96908.50;10328210;28;20058;-22
2022/04/27 02:59:19;;;;;;;2.67;1.33;;;;;;;17.57;58.34;96916.97;10326500;28;20034;-22
2022/04/27 03:04:24;;;;;;;2.30;1.77;;;;;;;17.52;57.83;96905.13;10326024;28;20041;-24
2022/04/27 03:09:24;;;;;;;1.50;1.40;;;;;;;17.59;58.96;96927.13;10326145;28;20047;-26
2022/04/27 03:14:25;;;;;;;4.85;1.40;;;;;;;17.58;59.17;96928.78;10325407;28;20038;-22
2022/04/27 03:19:26;;;;;;;2.53;1.27;;;;;;;17.50;58.80;96915.25;10325380;28;20092;-22
2022/04/27 03:24:26;;;;;;;2.22;1.38;;;;;;;17.60;58.98;96926.28;10328108;28;20034;-25
2022/04/27 03:29:33;;;;;;;1.77;1.17;;;;;;;17.59;58.96;96925.41;10334640;28;20100;-22
2022/04/27 03:34:36;;;;;;;1.95;1.67;;;;;;;17.59;58.34;96929.66;10333873;28;20133;-22
2022/04/27 03:39:36;;;;;;;1.60;1.27;;;;;;;17.57;58.47;96932.16;10332992;28;20543;-23
2022/04/27 03:44:37;;;;;;;1.58;1.20;;;;;;;17.53;57.96;96929.59;10333287;28;20026;-23
2022/04/27 03:49:38;;;;;;;1.77;1.20;;;;;;;17.60;57.75;96939.81;10332743;28;20030;-22
2022/04/27 03:54:39;;;;;;;2.92;1.50;;;;;;;17.62;57.45;96942.31;10369241;28;20030;-22
2022/04/27 03:59:40;;;;;;;1.25;1.15;;;;;;;17.65;57.81;96934.78;10373304;28;20124;-22
2022/04/27 04:04:41;;;;;;;1.15;1.00;;;;;;;17.65;57.02;96938.13;10356141;28;20042;-23
2022/04/27 04:09:42;;;;;;;1.35;1.10;;;;;;;17.64;57.29;96951.63;10334612;28;20300;-22
2022/04/27 04:14:43;;;;;;;1.50;1.40;;;;;;;17.69;58.26;96956.72;10357684;28;20042;-23
2022/04/27 04:19:56;;;;;;;1.85;1.48;;;;;;;17.68;58.01;96958.41;10359064;28;20030;-22
2022/04/27 04:30:39;;;;;;;1.92;1.20;;;;;;;17.68;57.26;96977.81;10339196;28;20034;-22
2022/04/27 04:36:01;;;;;;;1.75;1.20;;;;;;;17.67;57.35;96982.03;10329566;28;20409;-22
2022/04/27 04:41:02;;;;;;;4.88;2.92;;;;;;;17.59;56.94;96985.34;10330381;28;20030;-23
2022/04/27 04:46:13;;;;;;;4.93;2.22;;;;;;;17.56;56.96;96986.16;10331173;28;20042;-22
2022/04/27 04:51:36;;;;;;;3.00;2.30;;;;;;;17.52;56.83;96993.72;10350172;28;20041;-22
2022/04/27 04:56:55;;;;;;;4.15;3.35;;;;;;;17.45;55.73;96994.50;10351861;28;20042;-22
2022/04/27 05:02:13;;;;;;;2.65;2.13;;;;;;;17.48;56.80;96992.03;10331933;28;20121;-22
2022/04/27 05:07:33;;;;;;;2.30;1.92;;;;;;;17.51;56.25;96994.56;10331468;28;20081;-23
2022/04/27 05:12:46;;;;;;;5.97;2.70;;;;;;;17.58;55.80;96991.25;10331149;28;20460;-22
2022/04/27 05:18:05;;;;;;;7.25;3.15;;;;;;;17.44;54.53;96986.09;10336868;28;20038;-22
2022/04/27 05:23:20;;;;;;;6.20;3.05;;;;;;;17.16;53.98;96994.22;10355627;28;20034;-22
2022/04/27 05:31:54;;;;;;;7.88;2.80;;;;;;;17.13;53.82;96990.81;10360023;28;20111;-22
2022/04/27 05:34:14;;;;;;;8.20;3.17;;;;;;;16.28;54.49;96980.56;10359882;28;20564;-21
2022/04/27 05:39:20;;;;;;;8.70;2.70;;;;;;;16.99;53.61;96985.63;10354191;28;20034;-22
2022/04/27 05:44:39;;;;;;;5.47;3.05;;;;;;;17.24;54.35;96989.25;10360244;28;20492;-22
2022/04/27 05:49:53;;;;;;;10.13;2.45;;;;;;;17.36;55.29;96991.91;10359968;28;20124;-22
2022/04/27 05:55:12;;;;;;;3.72;2.25;;;;;;;17.43;55.62;97006.31;10332135;28;20062;-22
2022/04/27 06:00:28;;;;;;;6.10;2.03;;;;;;;17.48;56.20;97009.75;10347128;28;20420;-22
2022/04/27 06:05:49;;;;;;;3.92;1.83;;;;;;;17.49;55.77;97013.97;10360438;28;20501;-21
2022/04/27 06:10:52;;;;;;;6.10;1.90;;;;;;;17.49;55.71;97008.91;10351518;28;20129;-23
2022/04/27 06:15:52;;;;;;;2.28;1.90;;;;;;;17.51;55.98;97004.69;10360524;28;20038;-22
2022/04/27 06:21:05;;;;;;;3.72;1.90;;;;;;;17.52;55.77;97009.78;10360271;28;20042;-22
2022/04/27 06:26:06;;;;;;;2.50;2.10;;;;;;;17.48;56.14;97012.28;10357824;28;20030;-23
2022/04/27 06:31:08;;;;;;;4.72;1.80;;;;;;;17.44;56.20;97010.53;10359122;28;20029;-24
2022/04/27 06:36:08;;;;;;;2.45;1.83;;;;;;;17.48;55.98;97018.16;10350347;28;20404;-24
2022/04/27 06:41:09;;;;;;;3.22;1.73;;;;;;;17.42;56.19;96999.56;10355791;28;20034;-22
2022/04/27 06:46:29;;;;;;;8.00;1.85;;;;;;;17.49;56.30;97009.72;10352649;28;20061;-22
2022/04/27 06:51:48;;;;;;;2.58;2.17;;;;;;;17.34;55.55;97017.16;10360001;28;20120;-23
2022/04/27 06:57:17;;;;;;;3.08;1.65;;;;;;;17.40;56.45;97018.94;10389933;28;20659;-21
2022/04/27 07:02:32;;;;;;;3.22;1.65;;;;;;;17.44;56.31;97016.47;10358072;28;20391;-24
2022/04/27 07:07:32;;;;;;;2.30;1.80;;;;;;;17.46;56.48;97026.56;10345989;28;20026;-23
2022/04/27 07:12:33;;;;;;;2.90;1.65;;;;;;;17.46;56.55;97024.03;10351140;28;20042;-22
2022/04/27 07:17:33;;;;;;;2.47;1.90;;;;;;;17.53;56.81;97028.34;10363245;28;20038;-22
2022/04/27 07:22:34;;;;;;;3.05;1.50;;;;;;;17.52;56.77;97024.09;10325324;28;20043;-22
2022/04/27 07:27:34;;;;;;;3.57;1.77;;;;;;;17.53;56.57;97021.59;10351457;28;20037;-23
2022/04/27 07:32:34;;;;;;;3.08;1.60;;;;;;;17.54;56.64;97027.50;10366119;28;20656;-23
2022/04/27 07:37:38;;;;;;;3.23;2.23;;;;;;;17.55;56.77;97026.66;10334954;28;20489;-27
2022/04/27 07:42:39;;;;;;;3.08;1.90;;;;;;;17.53;56.48;97033.41;10326906;28;20460;-22
2022/04/27 07:47:45;;;;;;;3.25;1.60;;;;;;;17.53;57.08;97041.00;10327350;28;20034;-22
2022/04/27 07:52:45;;;;;;;2.10;1.40;;;;;;;17.50;56.59;97030.84;10326604;28;20113;-23
2022/04/27 07:57:46;;;;;;;1.63;1.53;;;;;;;17.51;56.68;97035.06;10352803;28;20104;-21
2022/04/27 08:02:47;;;;;;;3.87;1.50;;;;;;;17.52;57.29;97049.41;10367422;28;20303;-22
2022/04/27 08:07:47;;;;;;;2.08;1.40;;;;;;;17.52;56.68;97051.94;10338529;28;20368;-22
2022/04/27 08:12:49;;;;;;;4.30;2.30;;;;;;;17.52;57.20;97044.34;10357680;28;20634;-23
2022/04/27 08:17:53;;;;;;;3.03;1.52;;;;;;;17.51;57.10;97042.66;10371503;28;20037;-23
2022/04/27 08:22:53;;;;;;;3.03;1.73;;;;;;;17.49;57.64;97049.41;10333761;28;20133;-23
2022/04/27 08:27:54;;;;;;;1.40;1.20;;;;;;;17.50;57.78;97048.56;10333994;28;20583;-22
2022/04/27 08:32:59;;;;;;;1.73;1.63;;;;;;;17.48;57.42;97051.06;10339861;28;20034;-22
2022/04/27 08:38:01;;;;;;;1.42;1.23;;;;;;;17.49;57.08;97055.31;10373535;28;20473;-22
2022/04/27 08:43:01;;;;;;;2.13;1.50;;;;;;;17.41;57.54;97038.38;10344224;28;20118;-22
2022/04/27 08:48:03;;;;;;;1.25;1.10;;;;;;;17.49;57.24;97044.34;10340266;28;20049;-23
2022/04/27 08:53:04;;;;;;;1.75;1.60;;;;;;;17.46;57.02;97045.16;10372973;28;20061;-21
2022/04/27 08:58:14;;;;;;;1.60;1.30;;;;;;;17.47;57.51;97051.06;10343135;28;20061;-22
2022/04/27 09:03:35;;;;;;;1.33;1.23;;;;;;;17.40;57.39;97037.50;10336420;28;20480;-21
2022/04/27 09:08:45;;;;;;;2.58;1.35;;;;;;;17.48;57.99;97053.59;10372013;28;20042;-22
2022/04/27 09:13:48;;;;;;;2.45;1.20;;;;;;;17.52;57.48;97049.41;10336528;28;20046;-21
2022/04/27 09:24:12;;;;;;;1.73;1.20;;;;;;;17.50;57.47;97056.16;10330406;28;20039;-22
2022/04/27 09:29:25;;;;;;;3.27;1.43;;;;;;;17.49;57.39;97062.06;10331142;28;20034;-22
2022/04/27 09:34:28;;;;;;;1.70;1.27;;;;;;;17.43;57.37;97054.41;10330453;28;20436;-22
2022/04/27 09:39:29;;;;;;;1.75;1.65;;;;;;;17.46;57.63;97051.88;10331081;28;20528;-22
2022/04/27 09:44:32;;;;;;;1.42;1.27;;;;;;;17.47;57.59;97071.31;10330091;28;20042;-22
2022/04/27 09:49:36;;;;;;;1.50;1.27;;;;;;;17.46;57.71;97067.94;10330847;28;20038;-22
2022/04/27 09:54:42;;;;;;;1.30;1.20;;;;;;;17.46;56.99;97074.66;10329672;28;20109;-22
2022/04/27 09:59:44;;;;;;;2.60;1.20;;;;;;;17.42;57.46;97068.72;10330250;28;20030;-21
2022/04/27 10:04:45;;;;;;;1.20;1.10;;;;;;;17.45;57.36;97072.97;10343624;28;20587;-22
2022/04/27 10:09:45;;;;;;;2.20;1.52;;;;;;;17.45;57.95;97072.97;10367086;28;20065;-22
2022/04/27 10:14:46;;;;;;;1.23;1.13;;;;;;;17.43;58.24;97059.47;10329655;28;20112;-22
2022/04/27 10:19:48;;;;;;;1.33;1.13;;;;;;;17.48;57.47;97068.78;10328859;28;20038;-22
2022/04/27 10:24:50;;;;;;;1.15;1.02;;;;;;;17.49;57.59;97067.13;10328800;28;20039;-22
2022/04/27 10:30:07;;;;;;;1.15;1.02;;;;;;;17.52;57.08;97072.19;10329035;28;20397;-22
2022/04/27 10:35:19;;;;;;;1.00;0.90;;;;;;;17.52;56.80;97059.53;10328005;28;20121;-23
2022/04/27 10:40:42;;;;;;;1.13;1.02;;;;;;;17.55;57.02;97067.16;10333187;28;20423;-22
2022/04/27 10:45:44;;;;;;;1.25;1.15;;;;;;;17.54;56.84;97065.47;10344385;28;20038;-22
2022/04/27 10:51:00;;;;;;;1.20;1.10;;;;;;;17.56;56.80;97068.88;10328474;28;20030;-22
2022/04/27 10:56:01;;;;;;;1.73;1.10;;;;;;;17.58;56.83;97064.66;10355738;28;20038;-22
2022/04/27 11:01:05;;;;;;;2.00;1.15;;;;;;;17.56;57.00;97053.69;10342943;28;20045;-23
2022/04/27 11:06:11;;;;;;;1.95;1.10;;;;;;;17.54;57.58;97062.94;10361522;28;20030;-23
2022/04/27 11:11:11;;;;;;;5.68;1.48;;;;;;;17.58;58.02;97064.66;10352679;28;20493;-22
2022/04/27 11:16:13;;;;;;;2.72;1.27;;;;;;;17.59;57.44;97057.06;10325379;28;20030;-22
2022/04/27 11:21:13;;;;;;;1.20;1.10;;;;;;;17.59;55.99;97066.38;10326554;28;20064;-21
2022/04/27 11:26:15;;;;;;;1.73;1.00;;;;;;;17.55;54.65;97060.44;10339623;28;20046;-22
2022/04/27 11:31:16;;;;;;;1.65;1.25;;;;;;;17.54;54.71;97047.75;10367134;28;20496;-22
2022/04/27 11:36:22;;;;;;;6.32;1.35;;;;;;;17.53;56.56;97035.94;10338107;28;20092;-22
2022/04/27 11:41:24;;;;;;;2.03;1.20;;;;;;;17.51;56.41;97042.66;10326902;28;20104;-23
2022/04/27 11:46:35;;;;;;;1.52;1.10;;;;;;;17.50;56.86;97040.97;10328736;28;20328;-21
2022/04/27 11:51:36;;;;;;;1.42;1.30;;;;;;;17.50;56.56;97040.97;10333604;28;20034;-22
2022/04/27 11:56:39;;;;;;;2.20;1.10;;;;;;;17.49;56.92;97039.28;10334827;28;20059;-22
2022/04/27 12:01:50;;;;;;;20.05;2.10;;;;;;;17.49;56.85;97041.81;10333974;28;20489;-22
2022/04/27 12:06:51;;;;;;;3.22;1.17;;;;;;;17.54;57.47;97045.22;10334146;28;20031;-22
2022/04/27 12:11:53;;;;;;;5.68;2.03;;;;;;;17.53;57.75;97036.78;10334629;28;20038;-22
2022/04/27 12:16:55;;;;;;;7.07;1.77;;;;;;;17.57;57.81;97037.66;10333734;28;20408;-22
2022/04/27 12:22:12;;;;;;;3.10;1.40;;;;;;;17.53;57.22;97031.72;10333345;28;20547;-21
2022/04/27 12:27:20;;;;;;;;;;;;;;;17.51;57.28;97037.59;10374507;28;20637;-22
2022/04/27 12:32:21;;;;;;;3.28;1.40;;;;;;;17.48;56.86;97032.53;10373452;28;19952;-23
2022/04/27 12:37:31;;;;;;;2.78;1.30;;;;;;;17.49;57.22;97029.16;10386120;28;20527;-22
2022/04/27 12:42:37;;;;;;;7.22;1.90;;;;;;;17.46;57.18;97013.91;10375705;28;20041;-22
2022/04/27 12:47:47;;;;;;;4.23;1.67;;;;;;;17.44;56.92;97016.47;10359653;28;20128;-22
2022/04/27 12:52:49;;;;;;;4.63;1.50;;;;;;;17.49;57.25;97014.81;10370710;28;20069;-22
2022/04/27 12:57:51;;;;;;;5.95;1.55;;;;;;;17.49;56.99;97019.84;10341704;28;20057;-22
2022/04/27 13:02:52;;;;;;;2.45;1.33;;;;;;;17.38;57.06;97005.41;10331876;28;20461;-22
2022/04/27 13:07:52;;;;;;;3.03;1.70;;;;;;;17.48;57.81;97017.34;10363422;28;20041;-21
2022/04/27 13:12:53;;;;;;;11.47;1.87;;;;;;;17.49;57.61;97013.97;10343652;28;20054;-21
2022/04/27 13:17:53;;;;;;;2.25;1.20;;;;;;;17.53;57.60;97001.34;10334262;28;20087;-21
2022/04/27 13:22:54;;;;;;;4.73;1.20;;;;;;;17.49;57.26;96999.59;10371328;28;20042;-22
2022/04/27 13:27:54;;;;;;;3.33;1.40;;;;;;;17.52;57.52;96996.25;10343324;28;20157;-22
2022/04/27 13:32:55;;;;;;;3.75;1.52;;;;;;;17.52;57.25;96993.72;10330597;28;20403;-21
2022/04/27 13:37:56;;;;;;;2.40;0.93;;;;;;;17.51;57.26;96992.03;10361996;28;20091;-21
2022/04/27 13:42:56;;;;;;;5.93;1.40;;;;;;;17.51;57.48;96985.28;10341872;28;20092;-21
2022/04/27 13:47:57;;;;;;;2.53;1.30;;;;;;;17.52;57.76;96983.59;10330122;28;20046;-21
2022/04/27 13:52:57;;;;;;;2.20;1.27;;;;;;;17.51;57.22;96981.91;10330265;28;20033;-21
2022/04/27 13:57:59;;;;;;;1.70;1.13;;;;;;;17.46;57.35;96976.81;10358147;28;20037;-21
2022/04/27 14:02:59;;;;;;;4.10;1.23;;;;;;;17.52;58.52;96976.00;10369937;28;20351;-21
2022/04/27 14:08:00;;;;;;;3.50;1.70;;;;;;;17.53;58.57;96980.22;10332052;28;20120;-21
2022/04/27 14:13:13;;;;;;;4.38;1.50;;;;;;;17.55;58.17;96974.34;10357105;28;20034;-21
2022/04/27 14:18:14;;;;;;;2.80;1.20;;;;;;;17.58;57.64;96971.00;10366872;28;20049;-21
2022/04/27 14:23:16;;;;;;;1.63;1.17;;;;;;;17.55;57.53;96968.44;10328734;28;20496;-21
2022/04/27 14:28:18;;;;;;;6.20;1.60;;;;;;;17.55;57.87;96974.34;10329320;28;20037;-21
2022/04/27 14:33:20;;;;;;;1.25;1.02;;;;;;;17.53;57.91;96970.97;10331027;28;20038;-21
2022/04/27 14:38:22;;;;;;;1.92;0.90;;;;;;;17.53;57.96;96967.56;10369279;28;20704;-21
2022/04/27 14:43:22;;;;;;;0.98;0.85;;;;;;;17.52;57.49;96961.69;10336316;28;20042;-21
2022/04/27 14:48:23;;;;;;;1.92;1.08;;;;;;;17.52;57.62;96971.81;10329149;28;20497;-21
2022/04/27 14:53:23;;;;;;;1.77;1.13;;;;;;;17.52;57.57;96970.94;10328117;28;20026;-22
2022/04/27 14:58:23;;;;;;;1.60;0.90;;;;;;;17.53;57.55;96970.09;10328672;28;20297;-21
2022/04/27 15:03:25;;;;;;;2.07;1.30;;;;;;;17.54;58.55;96967.59;10327697;28;20332;-22
2022/04/27 15:08:25;;;;;;;2.22;1.08;;;;;;;17.54;59.40;96967.59;10327738;28;20417;-21
2022/04/27 15:13:26;;;;;;;3.07;1.23;;;;;;;17.58;58.91;96976.06;10326990;28;20097;-20
2022/04/27 15:18:26;;;;;;;4.18;1.10;;;;;;;17.50;58.37;96963.34;10327719;28;20788;-21
2022/04/27 15:23:27;;;;;;;1.60;1.23;;;;;;;17.55;57.80;96978.56;10326338;28;20038;-21
2022/04/27 15:28:28;;;;;;;2.35;1.00;;;;;;;17.52;57.59;96963.34;10327403;28;20066;-21
2022/04/27 15:33:29;;;;;;;1.38;1.00;;;;;;;17.51;57.49;96976.84;10329826;28;20400;-21
2022/04/27 15:38:30;;;;;;;1.95;0.90;;;;;;;17.49;57.96;96965.88;10367702;28;20033;-21
2022/04/27 15:43:30;;;;;;;1.08;0.98;;;;;;;17.44;57.79;96959.91;10333949;28;20042;-21
2022/04/27 15:48:30;;;;;;;1.97;1.10;;;;;;;17.52;57.56;96973.47;10327176;28;20563;-22
2022/04/27 15:53:31;;;;;;;1.70;1.00;;;;;;;17.56;57.66;96985.34;10347726;28;20030;-21
2022/04/27 15:58:31;;;;;;;4.40;0.93;;;;;;;17.53;57.68;96983.63;10361825;28;20092;-20
2022/04/27 16:03:32;;;;;;;3.28;0.85;;;;;;;17.55;57.97;97001.34;10360661;28;20066;-22
2022/04/27 16:08:32;;;;;;;7.93;1.45;;;;;;;17.65;58.32;97005.66;10366671;28;20038;-21
2022/04/27 16:13:33;;;;;;;6.03;1.23;;;;;;;17.63;58.94;97002.25;10369707;28;20036;-21
2022/04/27 16:18:33;;;;;;;1.40;0.90;;;;;;;17.60;57.86;97004.78;10378658;28;20407;-22
2022/04/27 16:23:33;;;;;;;1.58;1.30;;;;;;;17.61;57.73;97004.78;10390448;28;20296;-22
2022/04/27 16:28:34;;;;;;;4.25;1.42;;;;;;;17.61;57.84;97014.06;10366332;28;20039;-21
2022/04/27 16:33:34;;;;;;;2.83;1.20;;;;;;;17.66;57.21;97022.53;10370714;28;20036;-21
2022/04/27 16:38:35;;;;;;;4.88;1.50;;;;;;;17.68;57.71;97018.34;10354993;28;20034;-21
2022/04/27 16:43:37;;;;;;;2.63;1.33;;;;;;;17.65;57.22;97018.31;10339254;28;20076;-21
2022/04/27 16:48:37;;;;;;;5.95;2.17;;;;;;;17.66;57.58;97022.53;10353279;28;20058;-21
2022/04/27 16:53:38;;;;;;;8.68;3.03;;;;;;;17.63;57.76;97008.19;10372688;28;20058;-20
2022/04/27 16:58:38;;;;;;;7.15;2.72;;;;;;;17.57;58.07;97015.72;10338259;28;20030;-20
2022/04/27 17:03:40;;;;;;;18.10;4.70;;;;;;;17.64;59.54;97037.72;10331825;28;20038;-21
2022/04/27 17:08:42;;;;;;;13.93;4.45;;;;;;;17.64;59.15;97034.31;10331909;28;20285;-22
2022/04/27 17:13:42;;;;;;;14.57;3.67;;;;;;;17.69;58.22;97045.34;10330841;28;20034;-21
2022/04/27 17:18:44;;;;;;;13.13;2.40;;;;;;;17.68;57.27;97036.06;10331518;28;20039;-21
2022/04/27 17:23:44;;;;;;;5.40;1.35;;;;;;;17.67;56.95;97039.44;10335972;28;20080;-22
2022/04/27 17:28:45;;;;;;;6.43;1.77;;;;;;;17.63;57.12;97042.75;10342077;28;20042;-23
2022/04/27 17:33:46;;;;;;;5.20;1.90;;;;;;;17.62;57.07;97038.53;10371629;28;20057;-22
2022/04/27 17:38:46;;;;;;;2.92;1.63;;;;;;;17.61;57.39;97054.56;10381453;28;20037;-21
2022/04/27 17:43:48;;;;;;;5.67;1.60;;;;;;;17.62;57.10;97058.78;10340105;28;20053;-23
2022/04/27 17:48:50;;;;;;;3.80;1.88;;;;;;;17.62;56.96;97067.25;10353520;28;20124;-22
2022/04/27 17:53:51;;;;;;;5.25;2.20;;;;;;;17.62;57.11;97063.84;10357163;28;20309;-22
2022/04/27 17:58:51;;;;;;;6.25;2.25;;;;;;;17.61;57.66;97074.81;10359122;28;20042;-21
2022/04/27 18:03:53;;;;;;;9.38;3.38;;;;;;;17.63;58.54;97073.13;10359966;28;20559;-21
2022/04/27 18:08:54;;;;;;;9.38;3.05;;;;;;;17.63;59.07;97083.25;10361503;28;20064;-21
2022/04/27 18:13:55;;;;;;;6.50;2.38;;;;;;;17.63;57.99;97088.34;10361228;28;20034;-23
2022/04/27 18:18:55;;;;;;;4.23;1.80;;;;;;;17.62;57.48;97099.28;10362401;28;20492;-21
2022/04/27 18:23:55;;;;;;;2.60;1.70;;;;;;;17.58;57.86;97102.66;10363253;28;20042;-22
2022/04/27 18:28:56;;;;;;;7.50;2.33;;;;;;;17.53;57.79;97097.53;10359724;28;20057;-21
2022/04/27 18:33:56;;;;;;;4.40;1.93;;;;;;;17.60;57.49;97113.63;10346776;28;20311;-22
2022/04/27 18:38:57;;;;;;;6.67;2.53;;;;;;;17.57;57.73;97104.31;10361341;28;20048;-23
2022/04/27 18:54:35;;;;;;;4.05;2.00;;;;;;;17.59;57.36;97127.13;10355745;28;20619;-21
2022/04/27 18:59:35;;;;;;;5.57;2.47;;;;;;;17.61;58.67;97135.59;10351287;28;20053;-20
2022/04/27 19:04:36;;;;;;;6.07;2.60;;;;;;;17.61;59.22;97140.66;10359450;28;20044;-22
2022/04/27 19:09:36;;;;;;;4.10;1.92;;;;;;;17.61;59.09;97145.72;10351323;28;20072;-23
2022/04/27 19:14:37;;;;;;;3.20;1.70;;;;;;;17.64;57.51;97145.72;10355584;28;20033;-22
2022/04/27 19:19:37;;;;;;;3.77;1.90;;;;;;;17.63;57.81;97154.16;10355654;28;20026;-23
2022/04/27 19:24:38;;;;;;;6.72;2.63;;;;;;;17.60;57.74;97169.34;10362007;28;20034;-21
2022/04/27 19:29:38;;;;;;;2.90;1.50;;;;;;;17.54;57.20;97159.13;10360211;28;20037;-23
2022/04/27 19:34:39;;;;;;;3.88;2.72;;;;;;;17.59;57.71;97185.38;10364739;28;20033;-21
2022/04/27 19:39:40;;;;;;;3.65;1.70;;;;;;;17.57;57.73;97189.56;10363781;28;20044;-22
2022/04/27 19:44:41;;;;;;;3.22;1.50;;;;;;;17.57;57.28;97198.00;10326650;28;20031;-22
2022/04/27 19:49:43;;;;;;;4.37;1.37;;;;;;;17.57;57.97;97195.47;10343250;28;20472;-22
2022/04/27 19:54:44;;;;;;;3.17;1.42;;;;;;;17.59;57.71;97182.84;10364472;28;20284;-21
2022/04/27 19:59:45;;;;;;;3.20;1.83;;;;;;;17.58;58.86;97186.19;10326669;28;20440;-23
2022/04/27 20:04:45;;;;;;;3.30;2.10;;;;;;;17.60;59.22;97194.66;10333819;28;20050;-21
2022/04/27 20:09:46;;;;;;;5.45;2.20;;;;;;;17.60;58.94;97199.72;10369544;28;20131;-23
2022/04/27 20:14:46;;;;;;;2.10;1.42;;;;;;;17.60;58.12;97184.53;10333315;28;20034;-23
2022/04/27 20:19:47;;;;;;;3.10;1.67;;;;;;;17.57;57.70;97180.28;10334083;28;20030;-22
2022/04/27 20:24:48;;;;;;;2.17;1.15;;;;;;;17.58;57.51;97189.56;10333547;28;20300;-21
2022/04/27 20:29:48;;;;;;;3.40;1.45;;;;;;;17.59;57.53;97192.97;10333744;28;20397;-20
2022/04/27 20:34:50;;;;;;;3.25;1.60;;;;;;;17.59;57.64;97190.44;10337010;28;20030;-21
2022/04/27 20:39:50;;;;;;;2.80;1.92;;;;;;;17.59;57.53;97195.50;10370525;28;20034;-21
2022/04/27 20:44:51;;;;;;;3.60;1.70;;;;;;;17.59;57.81;97191.25;10333099;28;20179;-21
2022/04/27 20:49:51;;;;;;;2.05;1.40;;;;;;;17.60;57.28;97190.44;10332574;28;20080;-21
2022/04/27 20:54:51;;;;;;;3.43;1.33;;;;;;;17.59;57.22;97198.84;10332025;28;20026;-22
2022/04/27 20:59:52;;;;;;;2.85;1.50;;;;;;;17.58;58.05;97198.84;10332717;28;20034;-21
2022/04/27 21:04:53;;;;;;;3.80;1.80;;;;;;;17.59;58.55;97201.38;10331994;28;20034;-22
2022/04/27 21:09:53;;;;;;;2.07;1.50;;;;;;;17.56;58.95;97203.06;10332034;28;20034;-21
2022/04/27 21:14:53;;;;;;;3.63;1.83;;;;;;;17.39;58.50;97169.94;10331769;28;20057;-21
2022/04/27 21:19:54;;;;;;;3.00;1.35;;;;;;;17.58;57.22;97201.38;10330396;28;20117;-23
2022/04/27 21:24:54;;;;;;;2.30;1.43;;;;;;;17.61;57.72;97206.47;10333380;28;20038;-22
2022/04/27 21:29:55;;;;;;;2.30;1.38;;;;;;;17.60;57.47;97209.84;10371199;28;20674;-22
2022/04/27 21:34:55;;;;;;;1.20;1.10;;;;;;;17.61;57.25;97209.00;10348060;28;20433;-22
2022/04/27 21:39:55;;;;;;;1.80;1.13;;;;;;;17.58;57.17;97211.50;10329424;28;20088;-23
2022/04/27 21:44:57;;;;;;;4.13;1.57;;;;;;;17.59;57.26;97216.56;10362647;28;20034;-22
2022/04/27 21:49:58;;;;;;;2.67;1.30;;;;;;;17.58;57.50;97219.09;10355610;28;20042;-22
2022/04/27 21:54:58;;;;;;;2.97;1.40;;;;;;;17.59;57.07;97225.88;10333390;28;20115;-22
2022/04/27 21:59:58;;;;;;;7.80;1.73;;;;;;;17.57;58.74;97222.47;10370411;28;20481;-22
2022/04/27 22:04:59;;;;;;;3.67;1.40;;;;;;;17.56;58.69;97234.28;10351349;28;20524;-21
2022/04/27 22:09:59;;;;;;;2.13;1.25;;;;;;;17.54;58.47;97224.94;10341745;28;20068;-21
2022/04/27 22:14:59;;;;;;;2.47;1.33;;;;;;;17.58;58.21;97229.25;10329185;28;20038;-20
2022/04/27 22:20:00;;;;;;;2.20;1.30;;;;;;;17.55;58.19;97230.03;10332343;28;20042;-21
2022/04/27 22:25:00;;;;;;;1.90;1.20;;;;;;;17.57;57.15;97230.06;10364379;28;20046;-21
2022/04/27 22:30:01;;;;;;;1.63;1.30;;;;;;;17.49;57.34;97226.59;10331581;28;20299;-22
2022/04/27 22:35:01;;;;;;;1.63;1.20;;;;;;;17.58;57.30;97237.66;10368649;28;20116;-20
2022/04/27 22:40:02;;;;;;;2.77;1.37;;;;;;;17.57;57.08;97225.00;10352994;28;20038;-21
2022/04/27 22:45:04;;;;;;;1.90;1.50;;;;;;;17.55;57.02;97232.56;10327639;28;20520;-21
2022/04/27 22:50:04;;;;;;;3.50;1.40;;;;;;;17.58;57.29;97240.19;10327885;28;20542;-21
2022/04/27 22:55:06;;;;;;;1.40;1.20;;;;;;;17.55;57.21;97236.78;10327411;28;20117;-22
2022/04/27 23:00:07;;;;;;;2.55;1.20;;;;;;;17.49;57.37;97226.59;10327293;28;20038;-22
2022/04/27 23:05:09;;;;;;;2.30;1.30;;;;;;;17.56;58.60;97243.56;10352136;28;20026;-21
2022/04/27 23:15:28;;;;;;;1.30;1.08;;;;;;;17.54;58.13;97242.69;10327497;28;20026;-21
2022/04/27 23:20:29;;;;;;;2.73;1.23;;;;;;;17.55;57.42;97247.75;10339724;28;20133;-21
2022/04/27 23:25:30;;;;;;;3.17;1.10;;;;;;;17.57;57.47;97250.31;10364247;28;20311;-22
2022/04/27 23:30:30;;;;;;;1.73;1.10;;;;;;;17.56;57.24;97249.47;10367804;28;20042;-22
2022/04/27 23:35:30;;;;;;;2.13;1.40;;;;;;;17.56;57.43;97246.09;10357322;28;20108;-22
2022/04/27 23:40:31;;;;;;;1.77;1.10;;;;;;;17.56;57.34;97256.22;10326625;28;20042;-21
2022/04/27 23:45:32;;;;;;;3.47;1.00;;;;;;;17.58;57.32;97262.16;10334590;28;20296;-21
2022/04/27 23:50:34;;;;;;;2.33;1.17;;;;;;;17.56;57.32;97258.75;10335246;28;20097;-22
2022/04/27 23:55:35;;;;;;;3.08;1.30;;;;;;;17.57;57.14;97268.88;10334642;28;20039;-22
